sensor_id;sensor_type;location;lat;lon;timestamp;pressure;altitude;pressure_sealevel;temperature;humidity
54439;BME280;40347;53.848;27.498;2023-12-20T00:01:50;1000.5;;;7.8;75.7
54439;BME280;40347;53.848;27.498;2023-12-20T00:06:24;1000.5;;;7.7;75.6
54439;BME280;40347;53.848;27.498;2023-12-20T00:11:24;1000.5;;;7.8;75.7
54439;BME280;40347;53.848;27.498;2023-12-20T00:16:25;1000.5;;;7.7;75.7
54439;BME280;40347;53.848;27.498;2023-12-20T00:21:24;1000.5;;;7.7;75.7
54439;BME280;40347;53.848;27.498;2023-12-20T00:26:50;1000.5;;;7.7;75.8
54439;BME280;40347;53.848;27.498;2023-12-20T00:31:30;1000.5;;;7.7;75.7
54439;BME280;40347;53.848;27.498;2023-12-20T00:37:04;1000.4;;;7.7;75.8
54439;BME280;40347;53.848;27.498;2023-12-20T00:41:40;1000.3;;;7.7;75.9
54439;BME280;40347;53.848;27.498;2023-12-20T00:46:42;1000.3;;;7.8;75.8
54439;BME280;40347;53.848;27.498;2023-12-20T00:51:48;1000.2;;;7.7;75.8
54439;BME280;40347;53.848;27.498;2023-12-20T00:56:24;1000.1;;;7.8;75.8
54439;BME280;40347;53.848;27.498;2023-12-20T01:01:24;1000.1;;;7.8;75.8
54439;BME280;40347;53.848;27.498;2023-12-20T01:06:46;1000;;;7.8;75.7
54439;BME280;40347;53.848;27.498;2023-12-20T01:11:24;999.9;;;7.8;75.7
54439;BME280;40347;53.848;27.498;2023-12-20T01:16:24;1000;;;7.9;75.7
54439;BME280;40347;53.848;27.498;2023-12-20T01:21:40;1000;;;7.9;75.6
54439;BME280;40347;53.848;27.498;2023-12-20T01:26:24;999.9;;;7.8;75.5
54439;BME280;40347;53.848;27.498;2023-12-20T01:31:26;999.8;;;7.8;75.4
54439;BME280;40347;53.848;27.498;2023-12-20T01:36:50;999.8;;;7.8;75.5
54439;BME280;40347;53.848;27.498;2023-12-20T01:41:48;999.8;;;7.8;75.4
54439;BME280;40347;53.848;27.498;2023-12-20T01:46:36;999.7;;;7.8;75.4
54439;BME280;40347;53.848;27.498;2023-12-20T01:51:24;999.6;;;7.7;75.4
54439;BME280;40347;53.848;27.498;2023-12-20T01:56:30;999.5;;;7.7;75.4
54439;BME280;40347;53.848;27.498;2023-12-20T02:01:36;999.4;;;7.7;75.5
54439;BME280;40347;53.848;27.498;2023-12-20T02:06:52;999.4;;;7.7;75.6
54439;BME280;40347;53.848;27.498;2023-12-20T02:11:32;999.3;;;7.6;75.6
54439;BME280;40347;53.848;27.498;2023-12-20T02:16:44;999.3;;;7.6;75.7
54439;BME280;40347;53.848;27.498;2023-12-20T02:21:40;999.3;;;7.5;75.7
54439;BME280;40347;53.848;27.498;2023-12-20T02:26:50;999.2;;;7.5;75.9
54439;BME280;40347;53.848;27.498;2023-12-20T02:31:34;999.2;;;7.5;75.9
54439;BME280;40347;53.848;27.498;2023-12-20T02:36:24;999.1;;;7.6;76
54439;BME280;40347;53.848;27.498;2023-12-20T02:41:24;999;;;7.6;75.9
54439;BME280;40347;53.848;27.498;2023-12-20T02:46:42;999;;;7.7;75.9
54439;BME280;40347;53.848;27.498;2023-12-20T02:52:00;998.9;;;7.7;75.8
54439;BME280;40347;53.848;27.498;2023-12-20T02:56:32;998.9;;;7.7;75.9
54439;BME280;40347;53.848;27.498;2023-12-20T03:01:24;998.9;;;7.7;75.8
54439;BME280;40347;53.848;27.498;2023-12-20T03:06:34;998.8;;;7.7;75.9
54439;BME280;40347;53.848;27.498;2023-12-20T03:11:42;998.8;;;7.8;75.9
54439;BME280;40347;53.848;27.498;2023-12-20T03:16:50;998.8;;;7.8;75.8
54439;BME280;40347;53.848;27.498;2023-12-20T03:21:25;998.9;;;7.8;75.7
54439;BME280;40347;53.848;27.498;2023-12-20T03:26:36;998.8;;;7.8;75.8
54439;BME280;40347;53.848;27.498;2023-12-20T03:31:24;998.8;;;7.8;75.8
54439;BME280;40347;53.848;27.498;2023-12-20T03:36:38;998.8;;;7.8;75.7
54439;BME280;40347;53.848;27.498;2023-12-20T03:41:32;998.8;;;7.8;75.6
54439;BME280;40347;53.848;27.498;2023-12-20T03:46:25;998.9;;;7.8;75.6
54439;BME280;40347;53.848;27.498;2023-12-20T03:51:42;998.8;;;7.7;75.7
54439;BME280;40347;53.848;27.498;2023-12-20T03:56:25;998.8;;;7.7;75.9
54439;BME280;40347;53.848;27.498;2023-12-20T04:01:57;998.8;;;7.7;76
54439;BME280;40347;53.848;27.498;2023-12-20T04:06:25;998.8;;;7.7;75.9
54439;BME280;40347;53.848;27.498;2023-12-20T04:11:25;998.7;;;7.6;76
54439;BME280;40347;53.848;27.498;2023-12-20T04:16:53;998.7;;;7.5;76.1
54439;BME280;40347;53.848;27.498;2023-12-20T04:21:25;998.8;;;7.5;76.2
54439;BME280;40347;53.848;27.498;2023-12-20T04:26:46;998.8;;;7.6;76.2
54439;BME280;40347;53.848;27.498;2023-12-20T04:31:41;998.7;;;7.6;76.2
54439;BME280;40347;53.848;27.498;2023-12-20T04:36:24;998.7;;;7.7;76.1
54439;BME280;40347;53.848;27.498;2023-12-20T04:41:24;998.8;;;7.7;76.1
54439;BME280;40347;53.848;27.498;2023-12-20T04:46:31;998.8;;;7.7;76.1
54439;BME280;40347;53.848;27.498;2023-12-20T04:51:43;998.9;;;7.7;76.3
54439;BME280;40347;53.848;27.498;2023-12-20T04:56:24;998.9;;;7.8;76.2
54439;BME280;40347;53.848;27.498;2023-12-20T05:01:55;998.8;;;7.8;76.1
54439;BME280;40347;53.848;27.498;2023-12-20T05:06:25;998.8;;;7.7;76
54439;BME280;40347;53.848;27.498;2023-12-20T05:11:45;998.7;;;7.6;76
54439;BME280;40347;53.848;27.498;2023-12-20T05:16:25;998.7;;;7.6;76
54439;BME280;40347;53.848;27.498;2023-12-20T05:21:51;998.6;;;7.6;76
54439;BME280;40347;53.848;27.498;2023-12-20T05:26:43;998.5;;;7.6;76
54439;BME280;40347;53.848;27.498;2023-12-20T05:31:33;998.5;;;7.6;76
54439;BME280;40347;53.848;27.498;2023-12-20T05:36:47;998.6;;;7.6;76.1
54439;BME280;40347;53.848;27.498;2023-12-20T05:41:25;998.5;;;7.7;75.9
54439;BME280;40347;53.848;27.498;2023-12-20T05:46:25;998.5;;;7.7;75.9
54439;BME280;40347;53.848;27.498;2023-12-20T05:51:25;998.5;;;7.7;75.8
54439;BME280;40347;53.848;27.498;2023-12-20T05:56:45;998.5;;;7.7;75.7
54439;BME280;40347;53.848;27.498;2023-12-20T06:01:37;998.6;;;7.7;75.6
54439;BME280;40347;53.848;27.498;2023-12-20T06:06:25;998.6;;;7.7;75.6
54439;BME280;40347;53.848;27.498;2023-12-20T06:11:33;998.6;;;7.8;75.5
54439;BME280;40347;53.848;27.498;2023-12-20T06:16:51;998.6;;;7.8;75.4
54439;BME280;40347;53.848;27.498;2023-12-20T06:21:43;998.7;;;7.8;75.3
54439;BME280;40347;53.848;27.498;2023-12-20T06:26:37;998.7;;;7.8;75.2
54439;BME280;40347;53.848;27.498;2023-12-20T06:31:43;998.7;;;7.8;75.1
54439;BME280;40347;53.848;27.498;2023-12-20T06:36:51;998.7;;;7.8;75.1
54439;BME280;40347;53.848;27.498;2023-12-20T06:41:43;998.8;;;7.8;75
54439;BME280;40347;53.848;27.498;2023-12-20T06:46:37;998.8;;;7.8;74.9
54439;BME280;40347;53.848;27.498;2023-12-20T06:51:25;998.9;;;7.8;74.9
54439;BME280;40347;53.848;27.498;2023-12-20T06:56:25;998.9;;;7.9;74.8
54439;BME280;40347;53.848;27.498;2023-12-20T07:01:39;999;;;7.9;74.7
54439;BME280;40347;53.848;27.498;2023-12-20T07:06:43;999;;;8;74.6
54439;BME280;40347;53.848;27.498;2023-12-20T07:11:33;999;;;8;74.5
54439;BME280;40347;53.848;27.498;2023-12-20T07:16:47;999;;;8;74.4
54439;BME280;40347;53.848;27.498;2023-12-20T07:21:25;998.9;;;8.1;74.3
54439;BME280;40347;53.848;27.498;2023-12-20T07:26:25;999;;;8.2;74.1
54439;BME280;40347;53.848;27.498;2023-12-20T07:31:37;999;;;8.3;74
54439;BME280;40347;53.848;27.498;2023-12-20T07:36:45;999.1;;;8.3;73.8
54439;BME280;40347;53.848;27.498;2023-12-20T07:41:37;998.9;;;8.4;73.7
54439;BME280;40347;53.848;27.498;2023-12-20T07:46:25;998.8;;;8.4;73.6
54439;BME280;40347;53.848;27.498;2023-12-20T07:51:25;998.9;;;8.4;73.5
54439;BME280;40347;53.848;27.498;2023-12-20T07:56:25;998.9;;;8.4;73.4
54439;BME280;40347;53.848;27.498;2023-12-20T08:01:25;999;;;8.5;73.3
54439;BME280;40347;53.848;27.498;2023-12-20T08:06:25;999;;;8.6;73.1
54439;BME280;40347;53.848;27.498;2023-12-20T08:12:07;999;;;8.6;73
54439;BME280;40347;53.848;27.498;2023-12-20T08:16:51;999;;;8.7;72.9
54439;BME280;40347;53.848;27.498;2023-12-20T08:21:47;999;;;8.8;72.8
54439;BME280;40347;53.848;27.498;2023-12-20T08:26:37;999;;;8.9;72.6
54439;BME280;40347;53.848;27.498;2023-12-20T08:31:33;999.2;;;8.9;72.5
54439;BME280;40347;53.848;27.498;2023-12-20T08:36:53;999.2;;;8.9;72.5
54439;BME280;40347;53.848;27.498;2023-12-20T08:41:41;999.2;;;8.9;72.4
54439;BME280;40347;53.848;27.498;2023-12-20T08:46:37;999.1;;;8.8;72.4
54439;BME280;40347;53.848;27.498;2023-12-20T08:51:31;999;;;8.8;72.4
54439;BME280;40347;53.848;27.498;2023-12-20T08:56:43;999;;;8.8;72.4
54439;BME280;40347;53.848;27.498;2023-12-20T09:01:25;999.1;;;8.8;72.5
54439;BME280;40347;53.848;27.498;2023-12-20T09:06:51;999.1;;;8.8;72.4
54439;BME280;40347;53.848;27.498;2023-12-20T09:11:25;999.1;;;8.8;72.4
54439;BME280;40347;53.848;27.498;2023-12-20T09:17:05;999;;;8.7;72.3
54439;BME280;40347;53.848;27.498;2023-12-20T09:21:37;999;;;8.7;72.4
54439;BME280;40347;53.848;27.498;2023-12-20T09:26:51;998.9;;;8.8;72.4
54439;BME280;40347;53.848;27.498;2023-12-20T09:31:25;998.8;;;8.8;72.3
54439;BME280;40347;53.848;27.498;2023-12-20T09:36:25;998.8;;;8.9;72.2
54439;BME280;40347;53.848;27.498;2023-12-20T09:41:54;998.8;;;8.9;72
54439;BME280;40347;53.848;27.498;2023-12-20T09:46:31;998.8;;;8.9;72
54439;BME280;40347;53.848;27.498;2023-12-20T09:51:25;998.6;;;9;72
54439;BME280;40347;53.848;27.498;2023-12-20T09:56:25;998.6;;;8.9;71.8
54439;BME280;40347;53.848;27.498;2023-12-20T10:01:33;998.5;;;8.9;71.8
54439;BME280;40347;53.848;27.498;2023-12-20T10:06:45;998.4;;;8.9;71.8
54439;BME280;40347;53.848;27.498;2023-12-20T10:11:47;998.4;;;8.9;71.7
54439;BME280;40347;53.848;27.498;2023-12-20T10:16:33;998.3;;;8.9;71.7
54439;BME280;40347;53.848;27.498;2023-12-20T10:21:25;998.2;;;8.9;71.8
54439;BME280;40347;53.848;27.498;2023-12-20T10:26:25;998.2;;;8.9;71.7
54439;BME280;40347;53.848;27.498;2023-12-20T10:31:39;998.1;;;8.9;71.7
54439;BME280;40347;53.848;27.498;2023-12-20T10:36:33;998.1;;;8.8;71.7
54439;BME280;40347;53.848;27.498;2023-12-20T10:41:55;998;;;8.7;71.9
54439;BME280;40347;53.848;27.498;2023-12-20T10:46:26;998;;;8.8;71.9
54439;BME280;40347;53.848;27.498;2023-12-20T10:51:47;998.1;;;9;71.9
54439;BME280;40347;53.848;27.498;2023-12-20T10:56:45;998.1;;;9.1;71.7
54439;BME280;40347;53.848;27.498;2023-12-20T11:01:25;998.2;;;9;71.5
54439;BME280;40347;53.848;27.498;2023-12-20T11:06:33;998.1;;;9;71.6
54439;BME280;40347;53.848;27.498;2023-12-20T11:11:35;998;;;9;71.6
54439;BME280;40347;53.848;27.498;2023-12-20T11:16:25;998;;;9;71.7
54439;BME280;40347;53.848;27.498;2023-12-20T11:22:03;998;;;9;71.6
54439;BME280;40347;53.848;27.498;2023-12-20T11:26:26;998;;;9;71.6
54439;BME280;40347;53.848;27.498;2023-12-20T11:31:25;998;;;9;71.5
54439;BME280;40347;53.848;27.498;2023-12-20T11:36:33;998;;;8.9;71.5
54439;BME280;40347;53.848;27.498;2023-12-20T11:41:25;998;;;8.9;71.5
54439;BME280;40347;53.848;27.498;2023-12-20T11:46:25;998;;;8.9;71.6
54439;BME280;40347;53.848;27.498;2023-12-20T11:51:31;998;;;8.9;71.6
54439;BME280;40347;53.848;27.498;2023-12-20T11:56:47;997.9;;;9;71.5
54439;BME280;40347;53.848;27.498;2023-12-20T12:01:47;997.9;;;9;71.5
54439;BME280;40347;53.848;27.498;2023-12-20T12:06:33;997.9;;;9;71.4
54439;BME280;40347;53.848;27.498;2023-12-20T12:11:25;997.9;;;9;71.6
54439;BME280;40347;53.848;27.498;2023-12-20T12:16:43;997.8;;;9;71.7
54439;BME280;40347;53.848;27.498;2023-12-20T12:21:25;997.7;;;9;71.7
54439;BME280;40347;53.848;27.498;2023-12-20T12:27:01;997.7;;;9;71.6
54439;BME280;40347;53.848;27.498;2023-12-20T12:31:25;997.7;;;9;71.7
54439;BME280;40347;53.848;27.498;2023-12-20T12:37:09;997.6;;;9;71.7
54439;BME280;40347;53.848;27.498;2023-12-20T12:41:33;997.7;;;8.9;71.9
54439;BME280;40347;53.848;27.498;2023-12-20T12:46:49;997.6;;;8.9;72
54439;BME280;40347;53.848;27.498;2023-12-20T12:51:25;997.6;;;8.9;71.9
54439;BME280;40347;53.848;27.498;2023-12-20T12:56:31;997.6;;;8.8;72
54439;BME280;40347;53.848;27.498;2023-12-20T13:02:05;997.5;;;8.8;72.1
54439;BME280;40347;53.848;27.498;2023-12-20T13:07:07;997.6;;;8.9;72.2
54439;BME280;40347;53.848;27.498;2023-12-20T13:11:37;997.6;;;8.8;72.2
54439;BME280;40347;53.848;27.498;2023-12-20T13:16:57;997.5;;;8.9;72.2
54439;BME280;40347;53.848;27.498;2023-12-20T13:21:25;997.5;;;8.9;72
54439;BME280;40347;53.848;27.498;2023-12-20T13:26:49;997.5;;;9;72
54439;BME280;40347;53.848;27.498;2023-12-20T13:31:25;997.4;;;9;71.8
54439;BME280;40347;53.848;27.498;2023-12-20T13:36:33;997.3;;;9.1;71.7
54439;BME280;40347;53.848;27.498;2023-12-20T13:41:33;997.3;;;9.1;71.7
54439;BME280;40347;53.848;27.498;2023-12-20T13:46:25;997.3;;;9;71.6
54439;BME280;40347;53.848;27.498;2023-12-20T13:52:05;997.3;;;9;71.6
54439;BME280;40347;53.848;27.498;2023-12-20T13:56:43;997.2;;;8.8;71.7
54439;BME280;40347;53.848;27.498;2023-12-20T14:01:25;997.2;;;8.8;71.9
54439;BME280;40347;53.848;27.498;2023-12-20T14:06:25;997.1;;;8.8;72.1
54439;BME280;40347;53.848;27.498;2023-12-20T14:11:37;997.1;;;8.7;72.2
54439;BME280;40347;53.848;27.498;2023-12-20T14:16:37;997;;;8.6;72.7
54439;BME280;40347;53.848;27.498;2023-12-20T14:21:33;997;;;8.5;73
54439;BME280;40347;53.848;27.498;2023-12-20T14:26:25;997;;;8.5;73.3
54439;BME280;40347;53.848;27.498;2023-12-20T14:32:19;997;;;8.4;73.5
54439;BME280;40347;53.848;27.498;2023-12-20T14:36:25;996.9;;;8.4;73.7
54439;BME280;40347;53.848;27.498;2023-12-20T14:41:43;996.9;;;8.4;74
54439;BME280;40347;53.848;27.498;2023-12-20T14:46:43;996.8;;;8.3;74
54439;BME280;40347;53.848;27.498;2023-12-20T14:51:43;996.8;;;8.3;73.9
54439;BME280;40347;53.848;27.498;2023-12-20T14:57:07;996.8;;;8.2;74
54439;BME280;40347;53.848;27.498;2023-12-20T15:01:37;996.7;;;8.1;74.3
54439;BME280;40347;53.848;27.498;2023-12-20T15:06:43;996.7;;;8;74.5
54439;BME280;40347;53.848;27.498;2023-12-20T15:11:57;996.7;;;8;74.7
54439;BME280;40347;53.848;27.498;2023-12-20T15:16:33;996.6;;;7.9;74.9
54439;BME280;40347;53.848;27.498;2023-12-20T15:21:33;996.6;;;7.9;75.2
54439;BME280;40347;53.848;27.498;2023-12-20T15:26:25;996.6;;;7.9;75.5
54439;BME280;40347;53.848;27.498;2023-12-20T15:31:25;996.6;;;7.9;75.4
54439;BME280;40347;53.848;27.498;2023-12-20T15:36:49;996.4;;;7.9;75.3
54439;BME280;40347;53.848;27.498;2023-12-20T15:41:43;996.4;;;7.7;75.3
54439;BME280;40347;53.848;27.498;2023-12-20T15:46:25;996.5;;;7.6;75.6
54439;BME280;40347;53.848;27.498;2023-12-20T15:51:35;996.4;;;7.5;75.8
54439;BME280;40347;53.848;27.498;2023-12-20T15:56:25;996.4;;;7.4;75.9
54439;BME280;40347;53.848;27.498;2023-12-20T16:01:39;996.4;;;7.4;76.1
54439;BME280;40347;53.848;27.498;2023-12-20T16:06:35;996.3;;;7.3;76
54439;BME280;40347;53.848;27.498;2023-12-20T16:12:01;996.3;;;7.3;76.1
54439;BME280;40347;53.848;27.498;2023-12-20T16:16:37;996.3;;;7.2;76.3
54439;BME280;40347;53.848;27.498;2023-12-20T16:21:25;996.2;;;7.3;76.3
54439;BME280;40347;53.848;27.498;2023-12-20T16:26:25;996.2;;;7.3;76.2
54439;BME280;40347;53.848;27.498;2023-12-20T16:31:25;996.2;;;7.3;76.3
54439;BME280;40347;53.848;27.498;2023-12-20T16:36:48;996.2;;;7.3;76.3
54439;BME280;40347;53.848;27.498;2023-12-20T16:41:25;996.2;;;7.4;76.3
54439;BME280;40347;53.848;27.498;2023-12-20T16:46:49;996.2;;;7.4;76.2
54439;BME280;40347;53.848;27.498;2023-12-20T16:51:25;996.1;;;7.5;76.3
54439;BME280;40347;53.848;27.498;2023-12-20T16:56:31;996.1;;;7.5;76.3
54439;BME280;40347;53.848;27.498;2023-12-20T17:01:35;996.2;;;7.6;76.2
54439;BME280;40347;53.848;27.498;2023-12-20T17:06:25;996.2;;;7.6;76
54439;BME280;40347;53.848;27.498;2023-12-20T17:11:51;996.2;;;7.6;75.9
54439;BME280;40347;53.848;27.498;2023-12-20T17:16:43;996.1;;;7.6;75.9
54439;BME280;40347;53.848;27.498;2023-12-20T17:21:33;996;;;7.6;76
54439;BME280;40347;53.848;27.498;2023-12-20T17:26:37;996;;;7.6;75.8
54439;BME280;40347;53.848;27.498;2023-12-20T17:31:25;996;;;7.6;75.7
54439;BME280;40347;53.848;27.498;2023-12-20T17:36:25;995.9;;;7.6;75.6
54439;BME280;40347;53.848;27.498;2023-12-20T17:41:49;995.9;;;7.7;75.6
54439;BME280;40347;53.848;27.498;2023-12-20T17:46:47;995.8;;;7.7;75.4
54439;BME280;40347;53.848;27.498;2023-12-20T17:51:43;995.7;;;7.7;75.2
54439;BME280;40347;53.848;27.498;2023-12-20T17:56:25;995.6;;;7.6;75
54439;BME280;40347;53.848;27.498;2023-12-20T18:01:41;995.5;;;7.5;74.9
54439;BME280;40347;53.848;27.498;2023-12-20T18:06:43;995.4;;;7.4;75
54439;BME280;40347;53.848;27.498;2023-12-20T18:12:05;995.3;;;7.4;74.9
54439;BME280;40347;53.848;27.498;2023-12-20T18:16:43;995.2;;;7.4;74.7
54439;BME280;40347;53.848;27.498;2023-12-20T18:21:25;995.1;;;7.3;74.6
54439;BME280;40347;53.848;27.498;2023-12-20T18:26:57;995.1;;;7.3;74.5
54439;BME280;40347;53.848;27.498;2023-12-20T18:31:31;995.1;;;7.3;74.4
54439;BME280;40347;53.848;27.498;2023-12-20T18:36:33;995.2;;;7.3;74.3
54439;BME280;40347;53.848;27.498;2023-12-20T18:41:25;995.2;;;7.2;74.2
54439;BME280;40347;53.848;27.498;2023-12-20T18:46:33;995.2;;;7.1;74.1
54439;BME280;40347;53.848;27.498;2023-12-20T18:51:25;995.1;;;7;74
54439;BME280;40347;53.848;27.498;2023-12-20T18:56:31;995;;;7.1;74
54439;BME280;40347;53.848;27.498;2023-12-20T19:01:25;995.1;;;7.1;73.9
54439;BME280;40347;53.848;27.498;2023-12-20T19:06:47;995.3;;;7.1;73.7
54439;BME280;40347;53.848;27.498;2023-12-20T19:11:37;995.3;;;7.1;73.6
54439;BME280;40347;53.848;27.498;2023-12-20T19:16:55;995.2;;;7;73.4
54439;BME280;40347;53.848;27.498;2023-12-20T19:21:39;995;;;6.9;73.3
54439;BME280;40347;53.848;27.498;2023-12-20T19:26:49;995;;;6.9;73.3
54439;BME280;40347;53.848;27.498;2023-12-20T19:31:25;995.1;;;7;73.3
54439;BME280;40347;53.848;27.498;2023-12-20T19:36:25;995.1;;;7;73.3
54439;BME280;40347;53.848;27.498;2023-12-20T19:42:15;995.1;;;7;73.3
54439;BME280;40347;53.848;27.498;2023-12-20T19:46:29;995;;;7;73.5
54439;BME280;40347;53.848;27.498;2023-12-20T19:51:25;995;;;7.1;73.3
54439;BME280;40347;53.848;27.498;2023-12-20T19:57:05;995;;;7.2;73.1
54439;BME280;40347;53.848;27.498;2023-12-20T20:01:39;994.9;;;7.2;73
54439;BME280;40347;53.848;27.498;2023-12-20T20:06:39;995;;;7.2;73
54439;BME280;40347;53.848;27.498;2023-12-20T20:11:25;995;;;7.2;72.9
54439;BME280;40347;53.848;27.498;2023-12-20T20:16:25;995;;;7.2;72.8
54439;BME280;40347;53.848;27.498;2023-12-20T20:21:51;994.9;;;7.1;72.7
54439;BME280;40347;53.848;27.498;2023-12-20T20:26:25;994.9;;;7.2;72.7
54439;BME280;40347;53.848;27.498;2023-12-20T20:31:25;994.9;;;7.2;72.6
54439;BME280;40347;53.848;27.498;2023-12-20T20:37:01;994.9;;;7.2;72.5
54439;BME280;40347;53.848;27.498;2023-12-20T20:41:25;994.8;;;7.1;72.5
54439;BME280;40347;53.848;27.498;2023-12-20T20:46:25;994.8;;;7;72.6
54439;BME280;40347;53.848;27.498;2023-12-20T20:51:59;994.8;;;6.9;72.5
54439;BME280;40347;53.848;27.498;2023-12-20T20:56:25;994.8;;;6.8;72.5
54439;BME280;40347;53.848;27.498;2023-12-20T21:01:51;994.7;;;6.8;72.5
54439;BME280;40347;53.848;27.498;2023-12-20T21:06:55;994.7;;;6.7;72.3
54439;BME280;40347;53.848;27.498;2023-12-20T21:11:25;994.6;;;6.5;72.4
54439;BME280;40347;53.848;27.498;2023-12-20T21:16:27;994.6;;;6.5;72.5
54439;BME280;40347;53.848;27.498;2023-12-20T21:22:09;994.5;;;6.5;72.6
54439;BME280;40347;53.848;27.498;2023-12-20T21:26:25;994.5;;;6.5;72.6
54439;BME280;40347;53.848;27.498;2023-12-20T21:31:25;994.6;;;6.5;72.6
54439;BME280;40347;53.848;27.498;2023-12-20T21:36:25;994.5;;;6.5;72.7
54439;BME280;40347;53.848;27.498;2023-12-20T21:41:25;994.4;;;6.5;72.6
54439;BME280;40347;53.848;27.498;2023-12-20T21:46:33;994.3;;;6.5;72.5
54439;BME280;40347;53.848;27.498;2023-12-20T21:51:33;994.4;;;6.5;72.7
54439;BME280;40347;53.848;27.498;2023-12-20T21:56:33;994.3;;;6.6;72.6
54439;BME280;40347;53.848;27.498;2023-12-20T22:02:09;994.2;;;6.5;72.4
54439;BME280;40347;53.848;27.498;2023-12-20T22:06:41;994.2;;;6.4;72.4
54439;BME280;40347;53.848;27.498;2023-12-20T22:11:35;994.1;;;6.4;72.6
54439;BME280;40347;53.848;27.498;2023-12-20T22:16:43;994.1;;;6.5;72.6
54439;BME280;40347;53.848;27.498;2023-12-20T22:21:51;994.1;;;6.5;72.5
54439;BME280;40347;53.848;27.498;2023-12-20T22:26:55;994.1;;;6.4;72.5
54439;BME280;40347;53.848;27.498;2023-12-20T22:31:25;994;;;6.4;72.5
54439;BME280;40347;53.848;27.498;2023-12-20T22:36:25;994;;;6.4;72.4
54439;BME280;40347;53.848;27.498;2023-12-20T22:41:51;993.9;;;6.4;72.4
54439;BME280;40347;53.848;27.498;2023-12-20T22:46:37;993.9;;;6.4;72.4
54439;BME280;40347;53.848;27.498;2023-12-20T22:51:59;993.9;;;6.4;72.5
54439;BME280;40347;53.848;27.498;2023-12-20T22:56:31;993.8;;;6.3;72.6
54439;BME280;40347;53.848;27.498;2023-12-20T23:01:25;993.8;;;6.3;72.6
54439;BME280;40347;53.848;27.498;2023-12-20T23:06:25;993.7;;;6.3;72.6
54439;BME280;40347;53.848;27.498;2023-12-20T23:11:43;993.7;;;6.3;72.6
54439;BME280;40347;53.848;27.498;2023-12-20T23:16:57;993.7;;;6.3;72.5
54439;BME280;40347;53.848;27.498;2023-12-20T23:21:59;993.6;;;6.2;72.5
54439;BME280;40347;53.848;27.498;2023-12-20T23:26:49;993.5;;;6.2;72.5
54439;BME280;40347;53.848;27.498;2023-12-20T23:32:07;993.5;;;6.2;72.6
54439;BME280;40347;53.848;27.498;2023-12-20T23:36:45;993.6;;;6.3;72.6
54439;BME280;40347;53.848;27.498;2023-12-20T23:41:45;993.6;;;6.4;72.5
54439;BME280;40347;53.848;27.498;2023-12-20T23:46:25;993.5;;;6.5;72.4
54439;BME280;40347;53.848;27.498;2023-12-20T23:51:25;993.5;;;6.5;72.3
54439;BME280;40347;53.848;27.498;2023-12-20T23:56:25;993.5;;;6.5;72.2
